Latest Weather Observations for Shark Bay Airport

IDW60801

Issued at 9:35 am WST Thursday 23 October 2014 (issued every 30 minutes, with the page automatically refreshed every 10 minutes)

About weather observations | Map of weather stations | Latest weather observations for WA | Other Formats
Station Details ID: 006105 Name: SHARK BAY AIRPORT Lat: -25.89 Lon: 113.58 Height: 33.8 m
Data from the previous 72 hours. | See also: Recent months for locations in Western Australia
Date/Time
WST
Temp
°C
App
Temp
°C
Dew
Point
Rel
Hum
%
Delta-T
°C
Wind Press
QNH
hPa
Press
MSL
hPa
Rain
since 9 am
mm
Dir
 
Spd
km/h
Gust
km/h
Spd
kts
Gust
kts
23/09:30am 23.7 20.1 10.0 42 7.5 W 19 28 10 15 1018.2 1018.1 0.0
23/09:00am 23.8 21.5 11.8 47 6.8 SW 15 26 8 14 1018.0 1017.9 0.0
23/08:30am 23.2 22.7 12.5 51 6.1 SW 7 19 4 10 1017.6 1017.5 0.0
23/08:00am 22.0 20.9 10.8 49 6.2 SSW 7 11 4 6 1017.1 1017.0 0.0
23/07:30am 21.8 20.5 11.2 51 5.9 W 9 13 5 7 1016.9 1016.8 0.0
23/07:00am 20.5 19.7 10.9 54 5.3 SE 6 7 3 4 1016.9 1016.8 0.0
23/06:30am 18.5 18.2 11.3 63 3.9 S 4 7 2 4 1016.7 1016.6 0.0
23/06:00am 15.8 14.4 9.7 67 3.2 WSW 7 11 4 6 1016.7 1016.6 0.0
23/05:30am 16.5 15.2 10.1 66 3.4 SW 7 11 4 6 1016.5 1016.4 0.0
23/05:00am 18.4 16.3 11.2 63 3.9 SW 13 17 7 9 1016.3 1016.2 0.0
23/04:30am 18.9 17.7 12.9 68 3.4 SSW 11 17 6 9 1016.3 1016.2 0.0
23/04:00am 17.0 15.9 10.8 67 3.3 SW 7 11 4 6 1016.4 1016.3 0.0
23/03:30am 16.8 14.8 10.0 64 3.6 WSW 11 13 6 7 1016.4 1016.3 0.0
23/03:00am 18.3 16.0 11.6 65 3.7 WSW 15 20 8 11 1016.5 1016.4 0.0
23/02:30am 19.5 16.5 12.7 65 3.8 SW 20 28 11 15 1016.6 1016.5 0.0
23/02:00am 18.2 17.6 13.5 74 2.7 SW 9 13 5 7 1016.8 1016.7 0.0
23/01:30am 17.1 16.2 11.4 69 3.1 WSW 7 9 4 5 1017.0 1016.9 0.0
23/01:00am 18.6 16.9 12.4 67 3.4 WSW 13 19 7 10 1017.3 1017.2 0.0
23/12:30am 18.2 17.3 12.6 70 3.1 WSW 9 13 5 7 1017.4 1017.3 0.0
23/12:00am 18.4 17.3 13.0 71 3.0 WSW 11 13 6 7 1017.7 1017.6 0.0
 
Date/Time
WST
Temp
°C
App
Temp
°C
Dew
Point
Rel
Hum
%
Delta-T
°C
Wind Press
QNH
hPa
Press
MSL
hPa
Rain
since 9 am
mm
Dir
 
Spd
km/h
Gust
km/h
Spd
kts
Gust
kts
22/11:30pm 19.2 17.7 13.2 68 3.4 WSW 13 17 7 9 1017.8 1017.7 0.0
22/11:00pm 19.2 17.4 13.4 69 3.3 WSW 15 17 8 9 1018.0 1017.9 0.0
22/10:30pm 19.5 18.5 14.5 73 2.9 WSW 13 17 7 9 1018.1 1018.0 0.0
22/10:00pm 19.6 18.7 14.8 74 2.8 WSW 13 17 7 9 1018.2 1018.1 0.0
22/09:30pm 20.0 19.2 15.0 73 2.9 WSW 13 19 7 10 1018.1 1018.0 0.0
22/09:00pm 20.2 18.9 14.8 71 3.2 WSW 15 20 8 11 1018.1 1018.0 0.0
22/08:30pm 20.9 19.1 15.4 71 3.3 WSW 19 24 10 13 1018.0 1017.9 0.0
22/08:00pm 21.0 19.1 15.3 70 3.4 W 19 26 10 14 1017.9 1017.8 0.0
22/07:30pm 21.0 19.1 15.1 69 3.5 W 19 26 10 14 1017.8 1017.7 0.0
22/07:00pm 21.3 19.8 15.4 69 3.5 WSW 17 24 9 13 1017.5 1017.4 0.0
22/06:30pm 21.9 19.7 15.0 65 4.1 WSW 20 30 11 16 1017.2 1017.1 0.0
22/06:00pm 23.1 20.5 14.9 60 4.9 W 22 28 12 15 1016.8 1016.7 0.0
22/05:30pm 23.9 20.7 15.4 59 5.1 W 26 33 14 18 1016.6 1016.5 0.0
22/05:00pm 24.8 21.1 15.1 54 5.8 W 28 35 15 19 1016.5 1016.4 0.0
22/04:30pm 25.1 21.6 14.6 52 6.3 W 26 33 14 18 1016.4 1016.3 0.0
22/04:00pm 25.5 21.9 14.3 50 6.7 W 26 33 14 18 1016.4 1016.3 0.0
22/03:30pm 26.0 22.7 14.1 47 7.1 W 24 32 13 17 1016.4 1016.3 0.0
22/03:00pm 25.9 22.1 12.4 43 7.8 W 24 32 13 17 1016.4 1016.3 0.0
22/02:30pm 26.2 22.5 11.5 40 8.4 W 22 33 12 18 1016.5 1016.4 0.0
22/02:00pm 26.4 22.9 12.1 41 8.2 W 22 30 12 16 1016.8 1016.7 0.0
22/01:30pm 26.4 23.3 11.7 40 8.4 WSW 19 30 10 16 1016.9 1016.8 0.0
22/01:00pm 26.4 24.0 11.3 39 8.6 WSW 15 22 8 12 1017.1 1017.0 0.0
22/12:30pm 26.1 23.1 11.8 41 8.2 WSW 19 26 10 14 1017.4 1017.3 0.0
22/12:00pm 26.0 22.3 11.4 40 8.3 W 22 30 12 16 1017.6 1017.5 0.0
22/11:30am 26.1 23.0 12.2 42 8.0 W 20 33 11 18 1017.8 1017.7 0.0
22/11:00am 25.1 21.9 13.0 47 7.0 W 22 30 12 16 1017.8 1017.7 0.0
22/10:30am 24.5 21.8 12.8 48 6.8 SW 19 32 10 17 1018.0 1017.9 0.0
22/10:00am 24.0 20.9 12.3 48 6.7 SW 20 28 11 15 1018.2 1018.1 0.0
22/09:30am 23.6 20.4 12.0 48 6.6 W 20 32 11 17 1018.4 1018.3 0.0
22/09:00am 23.4 21.3 13.6 54 5.7 WSW 17 24 9 13 1018.2 1018.1 0.0
22/08:30am 22.8 19.8 12.7 53 5.8 WSW 20 28 11 15 1018.1 1018.0 0.0
22/08:00am 22.3 19.6 12.8 55 5.4 WSW 19 28 10 15 1017.8 1017.7 0.0
22/07:30am 22.0 19.5 13.4 58 5.0 WSW 19 26 10 14 1017.6 1017.5 0.0
22/07:00am 20.9 18.4 13.4 62 4.3 WSW 19 26 10 14 1017.4 1017.3 0.0
22/06:30am 19.5 18.1 13.4 68 3.5 WSW 13 17 7 9 1017.4 1017.3 0.0
22/06:00am 18.6 17.1 13.2 71 3.0 WSW 13 20 7 11 1017.0 1016.9 0.0
22/05:30am 18.4 16.6 13.3 72 2.9 WSW 15 19 8 10 1016.7 1016.6 0.0
22/05:00am 18.8 17.0 13.4 71 3.1 WSW 15 20 8 11 1016.5 1016.4 0.0
22/04:30am 19.6 17.3 14.2 71 3.1 WSW 19 28 10 15 1016.1 1016.0 0.0
22/04:00am 19.4 17.7 14.6 74 2.8 WSW 17 24 9 13 1016.1 1016.0 0.0
22/03:30am 19.0 18.2 15.1 78 2.3 WSW 13 19 7 10 1015.9 1015.8 0.0
22/03:00am 19.0 17.4 15.1 78 2.3 SW 17 20 9 11 1015.8 1015.7 0.0
22/02:30am 18.4 17.8 15.6 84 1.7 WSW 13 17 7 9 1016.1 1016.0 0.0
22/02:00am 16.5 15.7 14.0 85 1.4 WSW 11 11 6 6 1016.1 1016.0 0.0
22/01:30am 16.4 15.8 13.5 83 1.6 WSW 9 11 5 6 1016.1 1016.0 0.0
22/01:00am 16.9 16.5 14.0 83 1.6 S 9 13 5 7 1016.0 1015.9 0.0
22/12:30am 17.2 16.7 13.9 81 1.9 SSW 9 11 5 6 1016.3 1016.2 0.0
22/12:00am 17.8 17.1 14.3 80 2.0 SSW 11 13 6 7 1016.2 1016.1 0.0
 
Date/Time
WST
Temp
°C
App
Temp
°C
Dew
Point
Rel
Hum
%
Delta-T
°C
Wind Press
QNH
hPa
Press
MSL
hPa
Rain
since 9 am
mm
Dir
 
Spd
km/h
Gust
km/h
Spd
kts
Gust
kts
21/11:30pm 18.6 17.3 14.7 78 2.3 S 15 19 8 10 1016.2 1016.1 0.0
21/11:00pm 18.8 17.5 14.9 78 2.3 SSW 15 19 8 10 1016.8 1016.7 0.0
21/10:30pm 19.2 17.6 15.1 77 2.4 SSW 17 20 9 11 1017.3 1017.2 0.0
21/10:00pm 19.3 18.5 15.0 76 2.5 SSW 13 19 7 10 1017.5 1017.4 0.0
21/09:30pm 19.6 17.5 14.8 74 2.8 SSW 19 26 10 14 1017.2 1017.1 0.0
21/09:00pm 19.8 18.0 15.4 76 2.6 SSW 19 24 10 13 1017.1 1017.0 0.0
21/08:30pm 19.9 18.3 15.1 74 2.8 SSW 17 24 9 13 1017.0 1016.9 0.0
21/08:00pm 20.4 18.2 15.0 71 3.2 SSW 20 28 11 15 1016.8 1016.7 0.0
21/07:30pm 20.8 17.8 14.7 68 3.6 SW 24 32 13 17 1016.7 1016.6 0.0
21/07:00pm 21.3 18.1 15.2 68 3.6 SW 26 39 14 21 1016.1 1016.0 0.0
21/06:30pm 22.1 18.2 14.5 62 4.5 SW 28 37 15 20 1015.8 1015.7 0.0
21/06:00pm 23.4 20.3 14.4 57 5.3 SW 24 32 13 17 1015.4 1015.3 0.0
21/05:30pm 24.5 20.9 14.3 53 6.0 SW 26 33 14 18 1015.3 1015.2 0.0
21/05:00pm 25.2 21.9 14.0 49 6.6 SW 24 32 13 17 1015.0 1014.9 0.0
21/04:30pm 26.3 22.7 13.1 44 7.7 SW 24 30 13 16 1014.9 1014.8 0.0
21/04:00pm 26.7 22.6 13.8 45 7.6 WSW 28 33 15 18 1015.3 1015.2 0.0
21/03:30pm 27.9 24.0 13.4 40 8.6 WSW 26 33 14 18 1015.3 1015.2 0.0
21/03:00pm 28.6 23.8 11.6 34 9.8 W 28 39 15 21 1015.5 1015.4 0.0
21/02:30pm 28.6 24.3 10.8 33 10.1 W 24 30 13 16 1015.7 1015.6 0.0
21/02:00pm 28.7 24.9 11.3 34 10.0 W 22 30 12 16 1016.2 1016.1 0.0
21/01:30pm 28.2 25.0 9.9 32 10.2 SW 17 24 9 13 1016.5 1016.4 0.0
21/01:00pm 27.8 24.5 9.6 32 10.1 WSW 17 24 9 13 1016.9 1016.8 0.0
21/12:30pm 26.6 22.8 11.1 38 8.8 SW 22 28 12 15 1017.4 1017.3 0.0
21/12:00pm 26.1 22.7 11.1 39 8.5 SW 20 26 11 14 1017.5 1017.4 0.0
21/11:30am 26.4 23.3 11.7 40 8.4 SW 19 30 10 16 1017.7 1017.6 0.0
21/11:00am 26.4 23.4 12.1 41 8.2 SW 19 26 10 14 1018.0 1017.9 0.0
21/10:30am 26.4 24.2 10.9 38 8.8 SSW 13 22 7 12 1018.4 1018.3 0.0
21/10:00am 25.3 22.8 8.3 34 9.1 ESE 11 17 6 9 1018.6 1018.5 0.0
21/09:30am 24.7 22.1 9.4 38 8.3 ESE 13 19 7 10 1018.6 1018.5 0.0
21/09:00am 23.6 21.2 9.9 42 7.5 SE 13 20 7 11 1019.0 1018.9 0.0
21/08:30am 21.9 19.5 10.1 47 6.4 SSE 13 20 7 11 1019.2 1019.1 0.0
21/08:00am 20.7 17.7 10.8 53 5.4 SSE 17 22 9 12 1019.3 1019.2 0.0
21/07:30am 19.5 16.2 11.0 58 4.6 SSE 19 24 10 13 1019.1 1019.0 0.0
21/07:00am 18.3 15.0 11.6 65 3.7 SSE 20 26 11 14 1018.7 1018.6 0.0
21/06:30am 16.4 14.6 12.2 76 2.3 SSE 13 19 7 10 1018.4 1018.3 0.0
21/06:00am 15.3 13.4 11.9 80 1.8 SE 13 19 7 10 1017.9 1017.8 0.0
21/05:30am 15.4 13.1 11.8 79 1.9 SSE 15 19 8 10 1017.7 1017.6 0.0
21/05:00am 15.7 13.4 11.9 78 2.1 S 15 20 8 11 1017.7 1017.6 0.0
21/04:30am 15.7 13.1 12.1 79 2.0 SSE 17 20 9 11 1017.5 1017.4 0.0
21/04:00am 14.8 12.8 11.6 81 1.7 S 13 17 7 9 1017.6 1017.5 0.0
21/03:30am 14.5 12.3 10.9 79 1.9 S 13 15 7 8 1017.6 1017.5 0.0
21/03:00am 14.8 12.6 10.8 77 2.1 S 13 13 7 7 1017.7 1017.6 0.0
21/02:30am 15.2 12.9 10.6 74 2.4 S 13 15 7 8 1017.6 1017.5 0.0
21/02:00am 16.0 13.9 11.0 72 2.7 S 13 17 7 9 1017.8 1017.7 0.0
21/01:30am 16.5 14.7 12.1 75 2.4 S 13 17 7 9 1017.9 1017.8 0.0
21/01:00am 17.0 15.0 12.7 76 2.4 S 15 20 8 11 1018.0 1017.9 0.0
21/12:30am 17.3 15.6 13.6 79 2.1 SSE 15 20 8 11 1018.1 1018.0 0.0
21/12:00am 17.5 16.1 13.4 77 2.3 SSE 13 19 7 10 1018.3 1018.2 0.0
 
Date/Time
WST
Temp
°C
App
Temp
°C
Dew
Point
Rel
Hum
%
Delta-T
°C
Wind Press
QNH
hPa
Press
MSL
hPa
Rain
since 9 am
mm
Dir
 
Spd
km/h
Gust
km/h
Spd
kts
Gust
kts
20/11:30pm 17.7 16.4 13.8 78 2.2 S 13 17 7 9 1018.6 1018.5 0.0
20/11:00pm 17.9 16.6 13.8 77 2.3 S 13 17 7 9 1018.8 1018.7 0.0
20/10:30pm 18.6 16.5 13.7 73 2.8 S 17 22 9 12 1018.9 1018.8 0.0
20/10:00pm 18.8 16.7 13.6 72 3.0 S 17 22 9 12 1019.0 1018.9 0.0
20/09:30pm 19.1 17.0 13.7 71 3.1 S 17 24 9 13 1018.8 1018.7 0.0
20/09:00pm 19.2 17.0 13.4 69 3.3 S 17 24 9 13 1018.8 1018.7 0.0
20/08:30pm 19.4 17.1 13.1 67 3.6 S 17 24 9 13 1018.6 1018.5 0.0
20/08:00pm 19.8 16.9 12.8 64 3.9 S 20 26 11 14 1018.5 1018.4 0.0
20/07:30pm 20.3 17.5 12.5 61 4.4 SSW 19 26 10 14 1018.2 1018.1 0.0
20/07:00pm 20.8 17.3 12.2 58 4.8 SSW 22 28 12 15 1017.9 1017.8 0.0
20/06:30pm 21.4 17.2 11.1 52 5.7 SSW 24 32 13 17 1017.5 1017.4 0.0
20/06:00pm 22.5 18.2 10.6 47 6.5 SSW 24 33 13 18 1017.3 1017.2 0.0
20/05:30pm 23.3 18.6 10.7 45 7.0 SW 26 37 14 20 1017.2 1017.1 0.0
20/05:00pm 24.1 19.1 11.1 44 7.3 SW 28 37 15 20 1017.0 1016.9 0.0
20/04:30pm 24.3 19.7 10.9 43 7.5 SW 26 35 14 19 1016.7 1016.6 0.0
20/04:00pm 24.9 21.0 12.2 45 7.3 SW 24 35 13 19 1016.5 1016.4 0.0
20/03:30pm 24.9 20.4 11.5 43 7.6 SW 26 33 14 18 1016.6 1016.5 0.0
20/03:00pm 25.3 21.7 11.8 43 7.7 SW 22 32 12 17 1016.7 1016.6 0.0
20/02:30pm 25.5 21.9 11.7 42 7.9 SSW 22 33 12 18 1016.7 1016.6 0.0
20/02:00pm 25.9 21.8 11.3 40 8.3 SW 24 35 13 19 1016.9 1016.8 0.0
20/01:30pm 26.0 22.3 11.4 40 8.3 SW 22 32 12 17 1017.3 1017.2 0.0
20/01:00pm 25.7 21.8 10.7 39 8.4 SW 22 32 12 17 1017.4 1017.3 0.0
20/12:30pm 26.2 22.2 10.4 37 8.8 SSW 22 32 12 17 1017.7 1017.6 0.0
20/12:00pm 25.5 21.9 10.5 39 8.4 SW 20 28 11 15 1017.9 1017.8 0.0
20/11:30am 24.1 21.6 11.1 44 7.3 SW 15 20 8 11 1018.2 1018.1 0.0
20/11:00am 23.4 21.9 11.8 48 6.5 S 11 19 6 10 1018.5 1018.4 0.0
20/10:30am 22.8 20.5 11.8 50 6.2 SSE 15 20 8 11 1018.8 1018.7 0.0
20/10:00am 24.0 21.1 12.9 50 6.4 SW 20 28 11 15 1018.7 1018.6 0.0

Other Formats:

Comma delimited format used in spreadsheet applications
http://www.bom.gov.au/fwo/IDW60801/IDW60801.95402.axf

JavaScript Object Notation format (JSON) in row-major order
http://www.bom.gov.au/fwo/IDW60801/IDW60801.95402.json